sensor_id;sensor_type;location;lat;lon;timestamp;temperature;humidity
2200;DHT22;1106;48.762;9.168;2022-08-21T00:00:24;18.30;72.40
2200;DHT22;1106;48.762;9.168;2022-08-21T00:02:54;18.20;73.10
2200;DHT22;1106;48.762;9.168;2022-08-21T00:05:22;18.10;73.60
2200;DHT22;1106;48.762;9.168;2022-08-21T00:07:50;18.00;74.20
2200;DHT22;1106;48.762;9.168;2022-08-21T00:10:18;17.90;74.70
2200;DHT22;1106;48.762;9.168;2022-08-21T00:12:46;17.90;74.90
2200;DHT22;1106;48.762;9.168;2022-08-21T00:15:17;17.80;75.10
2200;DHT22;1106;48.762;9.168;2022-08-21T00:17:44;17.80;75.30
2200;DHT22;1106;48.762;9.168;2022-08-21T00:20:14;17.80;75.30
2200;DHT22;1106;48.762;9.168;2022-08-21T00:22:42;17.80;75.40
2200;DHT22;1106;48.762;9.168;2022-08-21T00:25:10;17.70;75.70
2200;DHT22;1106;48.762;9.168;2022-08-21T00:27:37;17.50;76.20
2200;DHT22;1106;48.762;9.168;2022-08-21T00:30:05;17.50;76.60
2200;DHT22;1106;48.762;9.168;2022-08-21T00:32:36;17.50;76.40
2200;DHT22;1106;48.762;9.168;2022-08-21T00:35:05;17.40;76.70
2200;DHT22;1106;48.762;9.168;2022-08-21T00:37:32;17.40;76.70
2200;DHT22;1106;48.762;9.168;2022-08-21T00:39:59;17.40;76.70
2200;DHT22;1106;48.762;9.168;2022-08-21T00:42:28;17.40;76.80
2200;DHT22;1106;48.762;9.168;2022-08-21T00:44:56;17.30;76.90
2200;DHT22;1106;48.762;9.168;2022-08-21T00:47:23;17.30;77.00
2200;DHT22;1106;48.762;9.168;2022-08-21T00:49:51;17.30;77.10
2200;DHT22;1106;48.762;9.168;2022-08-21T00:52:22;17.30;77.10
2200;DHT22;1106;48.762;9.168;2022-08-21T00:54:50;17.30;76.90
2200;DHT22;1106;48.762;9.168;2022-08-21T00:57:23;17.30;77.00
2200;DHT22;1106;48.762;9.168;2022-08-21T00:59:52;17.30;77.10
2200;DHT22;1106;48.762;9.168;2022-08-21T01:02:20;17.30;77.00
2200;DHT22;1106;48.762;9.168;2022-08-21T01:04:47;17.30;76.80
2200;DHT22;1106;48.762;9.168;2022-08-21T01:07:16;17.20;76.90
2200;DHT22;1106;48.762;9.168;2022-08-21T01:09:45;17.30;76.60
2200;DHT22;1106;48.762;9.168;2022-08-21T01:12:13;17.20;76.80
2200;DHT22;1106;48.762;9.168;2022-08-21T01:14:41;17.10;76.90
2200;DHT22;1106;48.762;9.168;2022-08-21T01:17:08;17.10;77.00
2200;DHT22;1106;48.762;9.168;2022-08-21T01:19:36;17.10;76.90
2200;DHT22;1106;48.762;9.168;2022-08-21T01:22:04;17.10;77.00
2200;DHT22;1106;48.762;9.168;2022-08-21T01:24:32;17.10;77.10
2200;DHT22;1106;48.762;9.168;2022-08-21T01:27:00;17.10;77.00
2200;DHT22;1106;48.762;9.168;2022-08-21T01:29:30;17.10;76.80
2200;DHT22;1106;48.762;9.168;2022-08-21T01:32:02;17.10;76.80
2200;DHT22;1106;48.762;9.168;2022-08-21T01:34:29;17.10;76.80
2200;DHT22;1106;48.762;9.168;2022-08-21T01:36:57;17.10;76.90
2200;DHT22;1106;48.762;9.168;2022-08-21T01:39:25;17.00;77.30
2200;DHT22;1106;48.762;9.168;2022-08-21T01:41:52;16.90;77.70
2200;DHT22;1106;48.762;9.168;2022-08-21T01:44:20;16.90;78.10
2200;DHT22;1106;48.762;9.168;2022-08-21T01:46:47;16.80;78.60
2200;DHT22;1106;48.762;9.168;2022-08-21T01:49:15;16.70;78.80
2200;DHT22;1106;48.762;9.168;2022-08-21T01:51:42;16.70;78.90
2200;DHT22;1106;48.762;9.168;2022-08-21T01:54:09;16.70;79.00
2200;DHT22;1106;48.762;9.168;2022-08-21T01:56:40;16.70;78.90
2200;DHT22;1106;48.762;9.168;2022-08-21T01:59:08;16.70;78.50
2200;DHT22;1106;48.762;9.168;2022-08-21T02:01:35;16.70;78.40
2200;DHT22;1106;48.762;9.168;2022-08-21T02:04:03;16.70;78.20
2200;DHT22;1106;48.762;9.168;2022-08-21T02:06:30;16.70;78.10
2200;DHT22;1106;48.762;9.168;2022-08-21T02:08:57;16.70;78.10
2200;DHT22;1106;48.762;9.168;2022-08-21T02:11:24;16.70;78.10
2200;DHT22;1106;48.762;9.168;2022-08-21T02:13:52;16.70;78.10
2200;DHT22;1106;48.762;9.168;2022-08-21T02:16:19;16.70;78.10
2200;DHT22;1106;48.762;9.168;2022-08-21T02:18:46;16.70;78.00
2200;DHT22;1106;48.762;9.168;2022-08-21T02:21:13;16.60;78.30
2200;DHT22;1106;48.762;9.168;2022-08-21T02:23:40;16.50;78.80
2200;DHT22;1106;48.762;9.168;2022-08-21T02:26:07;16.40;79.30
2200;DHT22;1106;48.762;9.168;2022-08-21T02:28:35;16.30;79.70
2200;DHT22;1106;48.762;9.168;2022-08-21T02:31:04;16.20;80.10
2200;DHT22;1106;48.762;9.168;2022-08-21T02:33:32;16.20;80.40
2200;DHT22;1106;48.762;9.168;2022-08-21T02:35:59;16.10;80.60
2200;DHT22;1106;48.762;9.168;2022-08-21T02:38:30;16.10;80.50
2200;DHT22;1106;48.762;9.168;2022-08-21T02:40:58;16.10;80.70
2200;DHT22;1106;48.762;9.168;2022-08-21T02:43:27;16.00;81.00
2200;DHT22;1106;48.762;9.168;2022-08-21T02:45:55;16.00;81.10
2200;DHT22;1106;48.762;9.168;2022-08-21T02:48:26;15.90;81.50
2200;DHT22;1106;48.762;9.168;2022-08-21T02:50:56;15.90;81.70
2200;DHT22;1106;48.762;9.168;2022-08-21T02:53:23;15.90;81.60
2200;DHT22;1106;48.762;9.168;2022-08-21T02:55:52;15.80;81.70
2200;DHT22;1106;48.762;9.168;2022-08-21T02:58:23;15.80;81.90
2200;DHT22;1106;48.762;9.168;2022-08-21T03:00:50;15.90;81.70
2200;DHT22;1106;48.762;9.168;2022-08-21T03:03:18;15.80;81.70
2200;DHT22;1106;48.762;9.168;2022-08-21T03:05:48;15.70;82.20
2200;DHT22;1106;48.762;9.168;2022-08-21T03:08:16;15.60;82.50
2200;DHT22;1106;48.762;9.168;2022-08-21T03:10:47;15.60;82.30
2200;DHT22;1106;48.762;9.168;2022-08-21T03:13:15;15.70;82.30
2200;DHT22;1106;48.762;9.168;2022-08-21T03:15:43;15.70;82.30
2200;DHT22;1106;48.762;9.168;2022-08-21T03:18:11;15.70;82.10
2200;DHT22;1106;48.762;9.168;2022-08-21T03:20:39;15.70;82.10
2200;DHT22;1106;48.762;9.168;2022-08-21T03:23:09;15.70;82.10
2200;DHT22;1106;48.762;9.168;2022-08-21T03:25:36;15.70;82.10
2200;DHT22;1106;48.762;9.168;2022-08-21T03:28:05;15.70;82.10
2200;DHT22;1106;48.762;9.168;2022-08-21T03:30:32;15.70;81.90
2200;DHT22;1106;48.762;9.168;2022-08-21T03:33:00;15.70;82.00
2200;DHT22;1106;48.762;9.168;2022-08-21T03:35:27;15.70;82.10
2200;DHT22;1106;48.762;9.168;2022-08-21T03:37:54;15.70;82.00
2200;DHT22;1106;48.762;9.168;2022-08-21T03:40:23;15.70;82.00
2200;DHT22;1106;48.762;9.168;2022-08-21T03:42:51;15.70;82.10
2200;DHT22;1106;48.762;9.168;2022-08-21T03:45:19;15.70;82.00
2200;DHT22;1106;48.762;9.168;2022-08-21T03:47:53;15.70;81.90
2200;DHT22;1106;48.762;9.168;2022-08-21T03:50:21;15.70;81.90
2200;DHT22;1106;48.762;9.168;2022-08-21T03:52:48;15.70;81.60
2200;DHT22;1106;48.762;9.168;2022-08-21T03:55:15;15.80;81.60
2200;DHT22;1106;48.762;9.168;2022-08-21T03:57:44;15.80;81.50
2200;DHT22;1106;48.762;9.168;2022-08-21T04:00:12;15.70;81.60
2200;DHT22;1106;48.762;9.168;2022-08-21T04:02:40;15.80;81.50
2200;DHT22;1106;48.762;9.168;2022-08-21T04:05:08;15.70;81.40
2200;DHT22;1106;48.762;9.168;2022-08-21T04:07:35;15.80;81.40
2200;DHT22;1106;48.762;9.168;2022-08-21T04:10:03;15.80;81.60
2200;DHT22;1106;48.762;9.168;2022-08-21T04:12:30;15.80;81.40
2200;DHT22;1106;48.762;9.168;2022-08-21T04:14:58;15.80;81.40
2200;DHT22;1106;48.762;9.168;2022-08-21T04:17:27;15.80;81.30
2200;DHT22;1106;48.762;9.168;2022-08-21T04:19:54;15.80;81.10
2200;DHT22;1106;48.762;9.168;2022-08-21T04:22:22;15.80;81.10
2200;DHT22;1106;48.762;9.168;2022-08-21T04:24:48;15.90;80.90
2200;DHT22;1106;48.762;9.168;2022-08-21T04:27:15;15.90;80.90
2200;DHT22;1106;48.762;9.168;2022-08-21T04:29:42;15.90;80.70
2200;DHT22;1106;48.762;9.168;2022-08-21T04:32:11;16.00;80.30
2200;DHT22;1106;48.762;9.168;2022-08-21T04:34:38;15.90;80.40
2200;DHT22;1106;48.762;9.168;2022-08-21T04:37:05;15.90;80.60
2200;DHT22;1106;48.762;9.168;2022-08-21T04:39:31;15.90;80.70
2200;DHT22;1106;48.762;9.168;2022-08-21T04:41:58;15.90;80.40
2200;DHT22;1106;48.762;9.168;2022-08-21T04:44:25;15.90;80.40
2200;DHT22;1106;48.762;9.168;2022-08-21T04:46:52;15.90;80.70
2200;DHT22;1106;48.762;9.168;2022-08-21T04:49:21;16.00;80.50
2200;DHT22;1106;48.762;9.168;2022-08-21T04:51:47;16.10;80.00
2200;DHT22;1106;48.762;9.168;2022-08-21T04:54:18;16.10;79.90
2200;DHT22;1106;48.762;9.168;2022-08-21T04:56:47;16.20;79.60
2200;DHT22;1106;48.762;9.168;2022-08-21T04:59:20;16.20;79.40
2200;DHT22;1106;48.762;9.168;2022-08-21T05:01:49;16.20;79.40
2200;DHT22;1106;48.762;9.168;2022-08-21T05:04:20;16.30;79.20
2200;DHT22;1106;48.762;9.168;2022-08-21T05:06:51;16.50;78.60
2200;DHT22;1106;48.762;9.168;2022-08-21T05:09:21;16.40;78.50
2200;DHT22;1106;48.762;9.168;2022-08-21T05:11:50;16.50;78.40
2200;DHT22;1106;48.762;9.168;2022-08-21T05:14:18;16.60;78.00
2200;DHT22;1106;48.762;9.168;2022-08-21T05:16:46;16.60;78.10
2200;DHT22;1106;48.762;9.168;2022-08-21T05:19:13;16.60;78.10
2200;DHT22;1106;48.762;9.168;2022-08-21T05:21:42;16.60;78.10
2200;DHT22;1106;48.762;9.168;2022-08-21T05:24:12;16.70;78.10
2200;DHT22;1106;48.762;9.168;2022-08-21T05:26:39;16.80;77.70
2200;DHT22;1106;48.762;9.168;2022-08-21T05:29:06;16.80;77.30
2200;DHT22;1106;48.762;9.168;2022-08-21T05:31:33;16.90;76.80
2200;DHT22;1106;48.762;9.168;2022-08-21T05:34:00;17.00;76.40
2200;DHT22;1106;48.762;9.168;2022-08-21T05:36:27;16.90;76.80
2200;DHT22;1106;48.762;9.168;2022-08-21T05:38:54;16.90;77.10
2200;DHT22;1106;48.762;9.168;2022-08-21T05:41:22;16.90;77.10
2200;DHT22;1106;48.762;9.168;2022-08-21T05:43:50;17.10;77.00
2200;DHT22;1106;48.762;9.168;2022-08-21T05:46:16;17.10;76.70
2200;DHT22;1106;48.762;9.168;2022-08-21T05:48:43;17.30;76.30
2200;DHT22;1106;48.762;9.168;2022-08-21T05:51:12;17.40;75.80
2200;DHT22;1106;48.762;9.168;2022-08-21T05:53:41;17.50;75.60
2200;DHT22;1106;48.762;9.168;2022-08-21T05:56:09;17.60;75.30
2200;DHT22;1106;48.762;9.168;2022-08-21T05:58:37;17.60;75.30
2200;DHT22;1106;48.762;9.168;2022-08-21T06:01:05;17.70;75.10
2200;DHT22;1106;48.762;9.168;2022-08-21T06:03:38;17.80;74.80
2200;DHT22;1106;48.762;9.168;2022-08-21T06:06:05;17.90;74.60
2200;DHT22;1106;48.762;9.168;2022-08-21T06:08:32;18.10;73.80
2200;DHT22;1106;48.762;9.168;2022-08-21T06:11:01;18.10;73.30
2200;DHT22;1106;48.762;9.168;2022-08-21T06:13:29;18.10;73.20
2200;DHT22;1106;48.762;9.168;2022-08-21T06:16:06;18.10;73.60
2200;DHT22;1106;48.762;9.168;2022-08-21T06:18:34;18.10;73.60
2200;DHT22;1106;48.762;9.168;2022-08-21T06:21:01;18.10;73.70
2200;DHT22;1106;48.762;9.168;2022-08-21T06:23:29;18.20;73.40
2200;DHT22;1106;48.762;9.168;2022-08-21T06:25:56;18.30;73.40
2200;DHT22;1106;48.762;9.168;2022-08-21T06:28:23;18.30;73.30
2200;DHT22;1106;48.762;9.168;2022-08-21T06:30:50;18.50;73.10
2200;DHT22;1106;48.762;9.168;2022-08-21T06:33:18;18.50;72.90
2200;DHT22;1106;48.762;9.168;2022-08-21T06:35:45;18.60;72.80
2200;DHT22;1106;48.762;9.168;2022-08-21T06:38:12;18.80;72.30
2200;DHT22;1106;48.762;9.168;2022-08-21T06:40:39;18.90;71.90
2200;DHT22;1106;48.762;9.168;2022-08-21T06:43:08;19.00;71.70
2200;DHT22;1106;48.762;9.168;2022-08-21T06:45:35;19.10;71.30
2200;DHT22;1106;48.762;9.168;2022-08-21T06:48:03;19.30;70.60
2200;DHT22;1106;48.762;9.168;2022-08-21T06:50:32;19.40;70.30
2200;DHT22;1106;48.762;9.168;2022-08-21T06:53:01;19.60;69.90
2200;DHT22;1106;48.762;9.168;2022-08-21T06:55:27;19.70;69.50
2200;DHT22;1106;48.762;9.168;2022-08-21T06:57:54;19.90;69.00
2200;DHT22;1106;48.762;9.168;2022-08-21T07:00:21;19.90;68.60
2200;DHT22;1106;48.762;9.168;2022-08-21T07:02:48;20.10;68.10
2200;DHT22;1106;48.762;9.168;2022-08-21T07:05:15;20.20;67.90
2200;DHT22;1106;48.762;9.168;2022-08-21T07:07:44;20.40;67.20
2200;DHT22;1106;48.762;9.168;2022-08-21T07:10:12;20.50;65.90
2200;DHT22;1106;48.762;9.168;2022-08-21T07:12:39;20.60;65.70
2200;DHT22;1106;48.762;9.168;2022-08-21T07:15:07;20.70;65.30
2200;DHT22;1106;48.762;9.168;2022-08-21T07:17:34;20.80;64.80
2200;DHT22;1106;48.762;9.168;2022-08-21T07:20:02;20.80;64.40
2200;DHT22;1106;48.762;9.168;2022-08-21T07:22:29;20.90;64.30
2200;DHT22;1106;48.762;9.168;2022-08-21T07:24:58;20.90;64.10
2200;DHT22;1106;48.762;9.168;2022-08-21T07:27:25;21.10;63.60
2200;DHT22;1106;48.762;9.168;2022-08-21T07:29:52;21.20;63.40
2200;DHT22;1106;48.762;9.168;2022-08-21T07:32:19;21.20;63.10
2200;DHT22;1106;48.762;9.168;2022-08-21T07:34:46;21.20;63.40
2200;DHT22;1106;48.762;9.168;2022-08-21T07:37:13;21.40;63.00
2200;DHT22;1106;48.762;9.168;2022-08-21T07:39:40;21.50;62.80
2200;DHT22;1106;48.762;9.168;2022-08-21T07:42:08;21.60;62.30
2200;DHT22;1106;48.762;9.168;2022-08-21T07:44:36;21.80;62.00
2200;DHT22;1106;48.762;9.168;2022-08-21T07:47:03;21.80;61.60
2200;DHT22;1106;48.762;9.168;2022-08-21T07:49:30;21.70;62.00
2200;DHT22;1106;48.762;9.168;2022-08-21T07:51:57;21.80;61.70
2200;DHT22;1106;48.762;9.168;2022-08-21T07:54:25;21.90;61.70
2200;DHT22;1106;48.762;9.168;2022-08-21T07:56:52;22.10;61.10
2200;DHT22;1106;48.762;9.168;2022-08-21T07:59:20;22.10;61.00
2200;DHT22;1106;48.762;9.168;2022-08-21T08:01:47;22.10;61.00
2200;DHT22;1106;48.762;9.168;2022-08-21T08:04:14;22.20;61.00
2200;DHT22;1106;48.762;9.168;2022-08-21T08:06:41;22.40;60.90
2200;DHT22;1106;48.762;9.168;2022-08-21T08:09:08;22.50;59.80
2200;DHT22;1106;48.762;9.168;2022-08-21T08:11:37;22.60;59.50
2200;DHT22;1106;48.762;9.168;2022-08-21T08:14:05;22.60;59.50
2200;DHT22;1106;48.762;9.168;2022-08-21T08:16:33;22.60;59.80
2200;DHT22;1106;48.762;9.168;2022-08-21T08:19:00;22.70;60.10
2200;DHT22;1106;48.762;9.168;2022-08-21T08:21:29;22.90;60.00
2200;DHT22;1106;48.762;9.168;2022-08-21T08:23:56;22.80;59.00
2200;DHT22;1106;48.762;9.168;2022-08-21T08:26:22;22.90;58.50
2200;DHT22;1106;48.762;9.168;2022-08-21T08:28:49;22.90;58.10
2200;DHT22;1106;48.762;9.168;2022-08-21T08:31:16;23.00;57.90
2200;DHT22;1106;48.762;9.168;2022-08-21T08:33:45;23.10;57.10
2200;DHT22;1106;48.762;9.168;2022-08-21T08:36:14;23.20;57.30
2200;DHT22;1106;48.762;9.168;2022-08-21T08:38:41;23.30;57.00
2200;DHT22;1106;48.762;9.168;2022-08-21T08:41:11;23.30;56.60
2200;DHT22;1106;48.762;9.168;2022-08-21T08:43:40;23.30;55.90
2200;DHT22;1106;48.762;9.168;2022-08-21T08:46:12;23.30;55.90
2200;DHT22;1106;48.762;9.168;2022-08-21T08:48:47;23.30;55.70
2200;DHT22;1106;48.762;9.168;2022-08-21T08:51:19;23.40;54.90
2200;DHT22;1106;48.762;9.168;2022-08-21T08:53:50;23.40;55.20
2200;DHT22;1106;48.762;9.168;2022-08-21T08:56:22;23.50;54.90
2200;DHT22;1106;48.762;9.168;2022-08-21T08:58:52;23.60;54.20
2200;DHT22;1106;48.762;9.168;2022-08-21T09:01:20;23.60;54.70
2200;DHT22;1106;48.762;9.168;2022-08-21T09:03:49;23.80;54.80
2200;DHT22;1106;48.762;9.168;2022-08-21T09:06:32;23.70;54.60
2200;DHT22;1106;48.762;9.168;2022-08-21T09:09:11;23.90;54.60
2200;DHT22;1106;48.762;9.168;2022-08-21T09:11:47;24.10;53.50
2200;DHT22;1106;48.762;9.168;2022-08-21T09:14:24;24.10;53.30
2200;DHT22;1106;48.762;9.168;2022-08-21T09:16:56;24.20;52.50
2200;DHT22;1106;48.762;9.168;2022-08-21T09:19:40;24.30;52.30
2200;DHT22;1106;48.762;9.168;2022-08-21T09:22:23;24.40;51.80
2200;DHT22;1106;48.762;9.168;2022-08-21T09:25:03;24.00;51.30
2200;DHT22;1106;48.762;9.168;2022-08-21T09:27:34;24.00;52.10
2200;DHT22;1106;48.762;9.168;2022-08-21T09:30:03;24.20;52.00
2200;DHT22;1106;48.762;9.168;2022-08-21T09:32:32;24.20;52.20
2200;DHT22;1106;48.762;9.168;2022-08-21T09:35:06;24.40;52.40
2200;DHT22;1106;48.762;9.168;2022-08-21T09:37:35;24.60;52.20
2200;DHT22;1106;48.762;9.168;2022-08-21T09:40:26;24.70;52.20
2200;DHT22;1106;48.762;9.168;2022-08-21T09:42:57;24.70;52.20
2200;DHT22;1106;48.762;9.168;2022-08-21T09:45:24;24.70;52.00
2200;DHT22;1106;48.762;9.168;2022-08-21T09:47:51;24.70;52.00
2200;DHT22;1106;48.762;9.168;2022-08-21T09:50:22;24.60;53.30
2200;DHT22;1106;48.762;9.168;2022-08-21T09:52:51;24.40;52.80
2200;DHT22;1106;48.762;9.168;2022-08-21T09:55:33;24.70;52.10
2200;DHT22;1106;48.762;9.168;2022-08-21T09:58:19;24.50;52.30
2200;DHT22;1106;48.762;9.168;2022-08-21T10:00:56;24.70;52.20
2200;DHT22;1106;48.762;9.168;2022-08-21T10:03:25;24.90;52.10
2200;DHT22;1106;48.762;9.168;2022-08-21T10:05:56;25.10;51.70
2200;DHT22;1106;48.762;9.168;2022-08-21T10:08:25;25.10;51.50
2200;DHT22;1106;48.762;9.168;2022-08-21T10:10:56;25.10;51.00
2200;DHT22;1106;48.762;9.168;2022-08-21T10:13:37;25.20;50.70
2200;DHT22;1106;48.762;9.168;2022-08-21T10:16:15;25.20;50.80
2200;DHT22;1106;48.762;9.168;2022-08-21T10:18:50;25.30;51.10
2200;DHT22;1106;48.762;9.168;2022-08-21T10:21:23;25.50;51.00
2200;DHT22;1106;48.762;9.168;2022-08-21T10:24:01;25.60;50.50
2200;DHT22;1106;48.762;9.168;2022-08-21T10:26:39;25.60;50.70
2200;DHT22;1106;48.762;9.168;2022-08-21T10:29:17;25.70;50.90
2200;DHT22;1106;48.762;9.168;2022-08-21T10:31:53;25.90;50.80
2200;DHT22;1106;48.762;9.168;2022-08-21T10:34:31;26.10;50.00
2200;DHT22;1106;48.762;9.168;2022-08-21T10:37:11;26.20;49.70
2200;DHT22;1106;48.762;9.168;2022-08-21T10:39:48;26.40;49.00
2200;DHT22;1106;48.762;9.168;2022-08-21T10:42:31;26.50;48.40
2200;DHT22;1106;48.762;9.168;2022-08-21T10:45:22;26.50;47.70
2200;DHT22;1106;48.762;9.168;2022-08-21T10:47:54;26.10;48.30
2200;DHT22;1106;48.762;9.168;2022-08-21T10:50:30;25.90;48.90
2200;DHT22;1106;48.762;9.168;2022-08-21T10:53:09;26.00;48.40
2200;DHT22;1106;48.762;9.168;2022-08-21T10:55:43;26.00;48.50
2200;DHT22;1106;48.762;9.168;2022-08-21T10:58:14;26.10;48.60
2200;DHT22;1106;48.762;9.168;2022-08-21T11:00:47;26.00;48.60
2200;DHT22;1106;48.762;9.168;2022-08-21T11:03:17;26.10;48.80
2200;DHT22;1106;48.762;9.168;2022-08-21T11:05:50;26.10;48.60
2200;DHT22;1106;48.762;9.168;2022-08-21T11:08:22;26.10;49.10
2200;DHT22;1106;48.762;9.168;2022-08-21T11:10:53;26.20;49.30
2200;DHT22;1106;48.762;9.168;2022-08-21T11:13:28;26.30;48.40
2200;DHT22;1106;48.762;9.168;2022-08-21T11:16:02;26.20;48.30
2200;DHT22;1106;48.762;9.168;2022-08-21T11:18:35;26.10;48.50
2200;DHT22;1106;48.762;9.168;2022-08-21T11:21:09;26.20;48.40
2200;DHT22;1106;48.762;9.168;2022-08-21T11:23:46;26.30;48.10
2200;DHT22;1106;48.762;9.168;2022-08-21T11:26:18;26.30;48.70
2200;DHT22;1106;48.762;9.168;2022-08-21T11:28:51;26.50;48.40
2200;DHT22;1106;48.762;9.168;2022-08-21T11:31:30;26.50;48.70
2200;DHT22;1106;48.762;9.168;2022-08-21T11:34:09;26.50;48.50
2200;DHT22;1106;48.762;9.168;2022-08-21T11:36:46;26.60;47.30
2200;DHT22;1106;48.762;9.168;2022-08-21T11:39:26;26.50;47.60
2200;DHT22;1106;48.762;9.168;2022-08-21T11:42:04;26.40;48.00
2200;DHT22;1106;48.762;9.168;2022-08-21T11:44:42;26.30;48.20
2200;DHT22;1106;48.762;9.168;2022-08-21T11:47:15;26.40;48.20
2200;DHT22;1106;48.762;9.168;2022-08-21T11:49:57;26.10;48.40
2200;DHT22;1106;48.762;9.168;2022-08-21T11:52:33;25.90;49.30
2200;DHT22;1106;48.762;9.168;2022-08-21T11:55:05;26.20;49.10
2200;DHT22;1106;48.762;9.168;2022-08-21T11:57:39;26.40;49.10
2200;DHT22;1106;48.762;9.168;2022-08-21T12:00:13;26.50;48.30
2200;DHT22;1106;48.762;9.168;2022-08-21T12:02:45;26.70;48.10
2200;DHT22;1106;48.762;9.168;2022-08-21T12:05:27;26.90;47.50
2200;DHT22;1106;48.762;9.168;2022-08-21T12:08:05;27.00;47.20
2200;DHT22;1106;48.762;9.168;2022-08-21T12:10:36;27.00;46.50
2200;DHT22;1106;48.762;9.168;2022-08-21T12:13:11;26.60;46.80
2200;DHT22;1106;48.762;9.168;2022-08-21T12:15:39;26.60;47.20
2200;DHT22;1106;48.762;9.168;2022-08-21T12:18:20;26.60;47.30
2200;DHT22;1106;48.762;9.168;2022-08-21T12:20:59;26.80;46.60
2200;DHT22;1106;48.762;9.168;2022-08-21T12:23:30;26.90;46.10
2200;DHT22;1106;48.762;9.168;2022-08-21T12:26:18;27.10;46.20
2200;DHT22;1106;48.762;9.168;2022-08-21T12:28:46;27.50;45.70
2200;DHT22;1106;48.762;9.168;2022-08-21T12:31:22;27.60;44.60
2200;DHT22;1106;48.762;9.168;2022-08-21T12:33:54;27.70;44.90
2200;DHT22;1106;48.762;9.168;2022-08-21T12:36:23;27.90;44.60
2200;DHT22;1106;48.762;9.168;2022-08-21T12:38:56;28.10;44.40
2200;DHT22;1106;48.762;9.168;2022-08-21T12:41:28;28.20;44.40
2200;DHT22;1106;48.762;9.168;2022-08-21T12:44:00;28.30;43.30
2200;DHT22;1106;48.762;9.168;2022-08-21T12:46:34;28.40;42.60
2200;DHT22;1106;48.762;9.168;2022-08-21T12:49:08;28.30;42.80
2200;DHT22;1106;48.762;9.168;2022-08-21T12:51:47;28.00;43.40
2200;DHT22;1106;48.762;9.168;2022-08-21T12:54:23;27.90;43.10
2200;DHT22;1106;48.762;9.168;2022-08-21T12:57:02;27.70;43.60
2200;DHT22;1106;48.762;9.168;2022-08-21T12:59:30;27.90;43.30
2200;DHT22;1106;48.762;9.168;2022-08-21T13:01:59;28.20;43.40
2200;DHT22;1106;48.762;9.168;2022-08-21T13:04:33;28.30;43.00
2200;DHT22;1106;48.762;9.168;2022-08-21T13:07:06;28.50;42.30
2200;DHT22;1106;48.762;9.168;2022-08-21T13:09:38;28.40;42.50
2200;DHT22;1106;48.762;9.168;2022-08-21T13:12:09;28.30;42.80
2200;DHT22;1106;48.762;9.168;2022-08-21T13:14:39;28.40;43.20
2200;DHT22;1106;48.762;9.168;2022-08-21T13:17:07;28.40;43.10
2200;DHT22;1106;48.762;9.168;2022-08-21T13:19:36;28.50;42.70
2200;DHT22;1106;48.762;9.168;2022-08-21T13:22:03;28.50;42.50
2200;DHT22;1106;48.762;9.168;2022-08-21T13:24:38;28.40;42.80
2200;DHT22;1106;48.762;9.168;2022-08-21T13:27:22;28.40;43.00
2200;DHT22;1106;48.762;9.168;2022-08-21T13:30:01;28.50;43.00
2200;DHT22;1106;48.762;9.168;2022-08-21T13:32:30;28.50;43.20
2200;DHT22;1106;48.762;9.168;2022-08-21T13:34:59;28.50;42.70
2200;DHT22;1106;48.762;9.168;2022-08-21T13:37:26;28.30;42.80
2200;DHT22;1106;48.762;9.168;2022-08-21T13:39:54;28.20;42.80
2200;DHT22;1106;48.762;9.168;2022-08-21T13:42:23;28.00;43.00
2200;DHT22;1106;48.762;9.168;2022-08-21T13:44:52;28.00;42.80
2200;DHT22;1106;48.762;9.168;2022-08-21T13:47:20;27.80;43.00
2200;DHT22;1106;48.762;9.168;2022-08-21T13:49:50;27.70;42.90
2200;DHT22;1106;48.762;9.168;2022-08-21T13:52:20;27.50;43.30
2200;DHT22;1106;48.762;9.168;2022-08-21T13:54:53;27.50;43.50
2200;DHT22;1106;48.762;9.168;2022-08-21T13:57:28;27.40;43.60
2200;DHT22;1106;48.762;9.168;2022-08-21T14:00:13;27.60;43.30
2200;DHT22;1106;48.762;9.168;2022-08-21T14:02:43;27.80;43.60
2200;DHT22;1106;48.762;9.168;2022-08-21T14:05:15;27.90;43.50
2200;DHT22;1106;48.762;9.168;2022-08-21T14:07:43;28.10;43.50
2200;DHT22;1106;48.762;9.168;2022-08-21T14:10:14;28.40;42.50
2200;DHT22;1106;48.762;9.168;2022-08-21T14:12:47;28.40;42.70
2200;DHT22;1106;48.762;9.168;2022-08-21T14:15:20;28.50;42.10
2200;DHT22;1106;48.762;9.168;2022-08-21T14:17:49;28.50;42.00
2200;DHT22;1106;48.762;9.168;2022-08-21T14:20:27;28.50;42.30
2200;DHT22;1106;48.762;9.168;2022-08-21T14:22:54;28.70;41.90
2200;DHT22;1106;48.762;9.168;2022-08-21T14:25:30;29.00;41.50
2200;DHT22;1106;48.762;9.168;2022-08-21T14:28:17;29.00;41.40
2200;DHT22;1106;48.762;9.168;2022-08-21T14:30:47;29.00;41.00
2200;DHT22;1106;48.762;9.168;2022-08-21T14:33:23;28.90;40.70
2200;DHT22;1106;48.762;9.168;2022-08-21T14:35:51;28.80;41.00
2200;DHT22;1106;48.762;9.168;2022-08-21T14:38:21;28.70;40.90
2200;DHT22;1106;48.762;9.168;2022-08-21T14:40:50;28.70;41.10
2200;DHT22;1106;48.762;9.168;2022-08-21T14:43:19;28.80;40.80
2200;DHT22;1106;48.762;9.168;2022-08-21T14:45:47;28.80;40.90
2200;DHT22;1106;48.762;9.168;2022-08-21T14:48:14;28.60;40.90
2200;DHT22;1106;48.762;9.168;2022-08-21T14:50:41;28.60;41.30
2200;DHT22;1106;48.762;9.168;2022-08-21T14:53:08;28.60;41.10
2200;DHT22;1106;48.762;9.168;2022-08-21T14:55:37;28.40;41.40
2200;DHT22;1106;48.762;9.168;2022-08-21T14:58:20;28.40;41.60
2200;DHT22;1106;48.762;9.168;2022-08-21T15:00:48;28.60;41.50
2200;DHT22;1106;48.762;9.168;2022-08-21T15:03:15;28.80;41.10
2200;DHT22;1106;48.762;9.168;2022-08-21T15:05:42;28.90;40.40
2200;DHT22;1106;48.762;9.168;2022-08-21T15:08:09;28.90;40.60
2200;DHT22;1106;48.762;9.168;2022-08-21T15:10:36;28.80;40.60
2200;DHT22;1106;48.762;9.168;2022-08-21T15:13:03;28.90;40.70
2200;DHT22;1106;48.762;9.168;2022-08-21T15:15:35;29.00;40.50
2200;DHT22;1106;48.762;9.168;2022-08-21T15:18:05;29.10;40.40
2200;DHT22;1106;48.762;9.168;2022-08-21T15:20:32;29.20;40.10
2200;DHT22;1106;48.762;9.168;2022-08-21T15:22:59;29.10;40.20
2200;DHT22;1106;48.762;9.168;2022-08-21T15:25:26;29.00;40.40
2200;DHT22;1106;48.762;9.168;2022-08-21T15:27:54;29.10;40.50
2200;DHT22;1106;48.762;9.168;2022-08-21T15:30:21;29.20;40.60
2200;DHT22;1106;48.762;9.168;2022-08-21T15:32:49;29.40;40.00
2200;DHT22;1106;48.762;9.168;2022-08-21T15:35:17;29.60;39.50
2200;DHT22;1106;48.762;9.168;2022-08-21T15:37:44;29.70;38.80
2200;DHT22;1106;48.762;9.168;2022-08-21T15:40:12;29.90;38.30
2200;DHT22;1106;48.762;9.168;2022-08-21T15:42:40;29.90;38.20
2200;DHT22;1106;48.762;9.168;2022-08-21T15:45:09;29.90;38.00
2200;DHT22;1106;48.762;9.168;2022-08-21T15:47:39;29.80;38.10
2200;DHT22;1106;48.762;9.168;2022-08-21T15:50:12;29.90;38.00
2200;DHT22;1106;48.762;9.168;2022-08-21T15:52:39;30.20;37.60
2200;DHT22;1106;48.762;9.168;2022-08-21T15:55:07;30.60;37.10
2200;DHT22;1106;48.762;9.168;2022-08-21T15:57:35;30.60;36.80
2200;DHT22;1106;48.762;9.168;2022-08-21T16:00:06;30.70;36.90
2200;DHT22;1106;48.762;9.168;2022-08-21T16:02:37;30.80;36.70
2200;DHT22;1106;48.762;9.168;2022-08-21T16:05:05;31.20;36.30
2200;DHT22;1106;48.762;9.168;2022-08-21T16:07:34;31.90;35.20
2200;DHT22;1106;48.762;9.168;2022-08-21T16:10:01;32.40;35.10
2200;DHT22;1106;48.762;9.168;2022-08-21T16:12:31;33.20;34.30
2200;DHT22;1106;48.762;9.168;2022-08-21T16:15:00;34.40;33.20
2200;DHT22;1106;48.762;9.168;2022-08-21T16:17:30;35.30;32.00
2200;DHT22;1106;48.762;9.168;2022-08-21T16:19:59;35.80;31.10